createdAt,value
2023-02-09T00:01:09.592Z,11.20
2023-02-09T00:03:37.960Z,9.17
2023-02-09T00:06:07.150Z,11.20
2023-02-09T00:08:36.886Z,9.77
2023-02-09T00:11:08.892Z,10.07
2023-02-09T00:13:39.952Z,11.63
2023-02-09T00:16:07.970Z,13.83
2023-02-09T00:18:36.220Z,12.40
2023-02-09T00:21:06.935Z,8.37
2023-02-09T00:23:37.632Z,9.50
2023-02-09T00:26:09.513Z,12.83
2023-02-09T00:28:37.875Z,10.47
2023-02-09T00:31:09.552Z,9.63
2023-02-09T00:33:41.324Z,10.23
2023-02-09T00:36:13.289Z,10.60
2023-02-09T00:38:42.808Z,9.40
2023-02-09T00:41:12.540Z,10.87
2023-02-09T00:43:41.381Z,10.87
2023-02-09T00:46:09.743Z,13.57
2023-02-09T00:48:37.953Z,11.17
2023-02-09T00:51:06.164Z,8.90
2023-02-09T00:53:36.115Z,9.27
2023-02-09T00:56:03.701Z,8.33
2023-02-09T00:58:33.147Z,9.37
2023-02-09T01:01:01.077Z,9.03
2023-02-09T01:03:28.917Z,11.40
2023-02-09T01:05:59.534Z,10.23
2023-02-09T01:08:27.469Z,11.30
2023-02-09T01:10:55.253Z,9.43
2023-02-09T01:13:22.924Z,10.10
2023-02-09T01:15:51.858Z,9.23
2023-02-09T01:18:19.760Z,10.37
2023-02-09T01:20:47.492Z,9.53
2023-02-09T01:23:17.096Z,10.20
2023-02-09T01:25:45.588Z,11.27
2023-02-09T01:28:13.623Z,11.40
2023-02-09T01:30:41.381Z,10.53
2023-02-09T01:33:10.448Z,8.47
2023-02-09T01:35:39.114Z,11.00
2023-02-09T01:38:06.728Z,9.83
2023-02-09T01:40:34.933Z,10.07
2023-02-09T01:43:02.643Z,9.33
2023-02-09T01:45:37.055Z,9.93
2023-02-09T01:48:05.157Z,10.23
2023-02-09T01:50:38.817Z,9.07
2023-02-09T01:53:07.927Z,10.27
2023-02-09T01:55:43.311Z,9.30
2023-02-09T01:58:14.419Z,9.87
2023-02-09T02:00:43.657Z,10.00
2023-02-09T02:03:16.247Z,10.53
2023-02-09T02:05:51.619Z,9.00
2023-02-09T02:08:27.396Z,11.17
2023-02-09T02:10:56.351Z,11.33
2023-02-09T02:13:24.282Z,9.03
2023-02-09T02:16:02.859Z,10.00
2023-02-09T02:18:56.636Z,10.13
2023-02-09T02:21:44.942Z,10.17
2023-02-09T02:24:30.891Z,10.07
2023-02-09T02:27:01.250Z,10.30
2023-02-09T02:29:51.979Z,9.47
2023-02-09T02:32:42.157Z,9.47
2023-02-09T02:35:19.087Z,9.20
2023-02-09T02:37:57.049Z,9.77
2023-02-09T02:40:38.874Z,13.07
2023-02-09T02:43:13.416Z,10.70
2023-02-09T02:45:46.269Z,16.07
2023-02-09T02:48:28.720Z,10.87
2023-02-09T02:51:03.676Z,10.30
2023-02-09T02:53:34.499Z,9.87
2023-02-09T02:56:08.720Z,9.77
2023-02-09T02:58:39.997Z,8.93
2023-02-09T03:01:13.728Z,10.97
2023-02-09T03:03:44.837Z,10.63
2023-02-09T03:06:14.547Z,9.30
2023-02-09T03:08:54.029Z,10.50
2023-02-09T03:11:24.452Z,9.70
2023-02-09T03:14:18.753Z,11.03
2023-02-09T03:16:49.843Z,12.50
2023-02-09T03:19:31.167Z,10.47
2023-02-09T03:22:05.442Z,11.37
2023-02-09T03:24:38.271Z,10.87
2023-02-09T03:27:14.897Z,14.40
2023-02-09T03:29:46.113Z,12.00
2023-02-09T03:32:14.921Z,11.27
2023-02-09T03:34:44.513Z,12.53
2023-02-09T03:37:12.702Z,10.87
2023-02-09T03:39:40.613Z,13.50
2023-02-09T03:42:09.063Z,11.80
2023-02-09T03:44:36.676Z,10.33
2023-02-09T03:47:07.010Z,10.40
2023-02-09T03:49:36.948Z,10.93
2023-02-09T03:52:08.041Z,10.70
2023-02-09T03:54:36.932Z,10.73
2023-02-09T03:57:05.655Z,11.90
2023-02-09T03:59:35.354Z,10.00
2023-02-09T04:02:04.213Z,10.37
2023-02-09T04:04:32.807Z,9.53
2023-02-09T04:07:01.240Z,10.73
2023-02-09T04:09:30.304Z,8.77
2023-02-09T04:11:58.689Z,9.17
2023-02-09T04:14:26.516Z,11.73
2023-02-09T04:16:55.168Z,9.73
2023-02-09T04:19:22.786Z,13.13
2023-02-09T04:21:50.877Z,12.93
2023-02-09T04:24:27.013Z,12.07
2023-02-09T04:26:56.248Z,15.10
2023-02-09T04:29:23.855Z,13.50
2023-02-09T04:31:52.255Z,12.40
2023-02-09T04:34:21.135Z,14.33
2023-02-09T04:36:49.456Z,14.83
2023-02-09T04:39:17.350Z,17.30
2023-02-09T04:41:45.945Z,16.43
2023-02-09T04:44:14.880Z,15.40
2023-02-09T04:46:45.339Z,13.97
2023-02-09T04:49:13.233Z,13.43
2023-02-09T04:51:41.132Z,16.23
2023-02-09T04:54:08.713Z,16.70
2023-02-09T04:56:38.690Z,14.33
2023-02-09T04:59:23.985Z,13.17
2023-02-09T05:01:53.327Z,15.03
2023-02-09T05:04:20.895Z,12.37
2023-02-09T05:06:49.396Z,13.17
2023-02-09T05:09:16.988Z,13.90
2023-02-09T05:11:45.215Z,11.47
2023-02-09T05:14:12.804Z,11.73
2023-02-09T05:16:40.685Z,14.30
2023-02-09T05:19:09.956Z,15.47
2023-02-09T05:21:37.539Z,16.27
2023-02-09T05:24:06.048Z,14.40
2023-02-09T05:26:33.662Z,15.20
2023-02-09T05:29:01.783Z,16.03
2023-02-09T05:31:29.613Z,15.33
2023-02-09T05:33:57.981Z,14.33
2023-02-09T05:36:27.034Z,15.47
2023-02-09T05:38:54.860Z,12.47
2023-02-09T05:41:36.375Z,13.10
2023-02-09T05:44:05.469Z,13.47
2023-02-09T05:46:33.201Z,13.13
2023-02-09T05:49:01.506Z,12.17
2023-02-09T05:51:30.420Z,14.63
2023-02-09T05:53:58.372Z,13.77
2023-02-09T05:56:26.120Z,16.83
2023-02-09T05:58:53.724Z,16.63
2023-02-09T06:01:21.317Z,16.23
2023-02-09T06:03:49.321Z,16.93
2023-02-09T06:06:16.948Z,18.77
2023-02-09T06:08:46.194Z,16.87
2023-02-09T06:11:13.806Z,16.87
2023-02-09T06:13:42.021Z,13.53
2023-02-09T06:16:09.790Z,17.23
2023-02-09T06:18:38.657Z,16.00
2023-02-09T06:21:06.606Z,13.70
2023-02-09T06:23:35.358Z,14.00
2023-02-09T06:26:08.437Z,12.80
2023-02-09T06:28:36.183Z,14.97
2023-02-09T06:31:04.218Z,19.03
2023-02-09T06:33:33.072Z,13.03
2023-02-09T06:36:00.709Z,12.90
2023-02-09T06:38:28.842Z,13.87
2023-02-09T06:40:56.501Z,12.40
2023-02-09T06:43:26.085Z,14.47
2023-02-09T06:45:54.792Z,13.30
2023-02-09T06:48:22.976Z,14.03
2023-02-09T06:50:50.803Z,14.10
2023-02-09T06:53:18.845Z,16.03
2023-02-09T06:55:46.592Z,12.83
2023-02-09T06:58:14.155Z,12.27
2023-02-09T07:00:43.659Z,13.60
2023-02-09T07:03:11.817Z,14.83
2023-02-09T07:05:39.453Z,13.83
2023-02-09T07:08:07.018Z,13.77
2023-02-09T07:10:35.294Z,14.27
2023-02-09T07:13:02.912Z,19.90
2023-02-09T07:15:31.077Z,15.83
2023-02-09T07:18:00.337Z,15.60
2023-02-09T07:20:28.546Z,13.50
2023-02-09T07:22:56.099Z,13.17
2023-02-09T07:25:24.287Z,13.30
2023-02-09T07:27:51.921Z,12.73
2023-02-09T07:30:20.275Z,11.57
2023-02-09T07:32:47.854Z,12.93
2023-02-09T07:35:17.911Z,13.20
2023-02-09T07:37:45.496Z,13.60
2023-02-09T07:40:14.037Z,14.10
2023-02-09T07:42:41.608Z,14.27
2023-02-09T07:45:10.244Z,12.00
2023-02-09T07:47:38.789Z,11.50
2023-02-09T07:50:07.186Z,12.80
2023-02-09T07:52:36.110Z,11.67
2023-02-09T07:55:04.579Z,10.27
2023-02-09T07:57:32.931Z,13.00
2023-02-09T08:00:01.189Z,11.47
2023-02-09T08:02:34.947Z,11.27
2023-02-09T08:05:04.720Z,10.10
2023-02-09T08:07:32.818Z,8.67
2023-02-09T08:10:02.572Z,10.60
2023-02-09T08:12:45.507Z,10.50
2023-02-09T08:15:16.544Z,10.03
2023-02-09T08:17:44.307Z,7.03
2023-02-09T08:20:15.640Z,8.53
2023-02-09T08:22:47.880Z,8.03
2023-02-09T08:25:20.345Z,8.23
2023-02-09T08:27:48.223Z,7.77
2023-02-09T08:30:18.277Z,8.83
2023-02-09T08:32:45.864Z,8.93
2023-02-09T08:35:14.044Z,7.73
2023-02-09T08:37:41.710Z,6.60
2023-02-09T08:40:10.153Z,7.47
2023-02-09T08:42:39.065Z,6.67
2023-02-09T08:45:07.854Z,6.90
2023-02-09T08:47:35.462Z,8.93
2023-02-09T08:50:03.446Z,8.77
2023-02-09T08:52:31.030Z,8.93
2023-02-09T08:54:59.081Z,8.20
2023-02-09T08:57:41.788Z,9.80
2023-02-09T09:00:14.504Z,10.27
2023-02-09T09:02:42.212Z,8.17
2023-02-09T09:05:11.268Z,7.90
2023-02-09T09:07:39.004Z,8.50
2023-02-09T09:10:08.797Z,8.97
2023-02-09T09:12:37.367Z,9.10
2023-02-09T09:15:06.025Z,8.10
2023-02-09T09:17:34.992Z,7.70
2023-02-09T09:20:02.791Z,8.70
2023-02-09T09:22:30.409Z,8.63
2023-02-09T09:24:58.014Z,7.33
2023-02-09T09:27:27.124Z,8.20
2023-02-09T09:29:54.909Z,8.20
2023-02-09T09:32:24.848Z,6.93
2023-02-09T09:34:55.276Z,6.63
2023-02-09T09:37:24.148Z,6.73
2023-02-09T09:39:52.095Z,6.73
2023-02-09T09:42:24.689Z,7.20
2023-02-09T09:44:53.710Z,6.20
2023-02-09T09:47:27.213Z,7.20
2023-02-09T09:49:56.356Z,5.63
2023-02-09T09:52:31.130Z,6.27
2023-02-09T09:54:59.405Z,6.67
2023-02-09T09:57:29.684Z,7.03
2023-02-09T09:59:58.523Z,7.17
2023-02-09T10:02:30.923Z,6.47
2023-02-09T10:05:03.547Z,6.10
2023-02-09T10:07:33.546Z,7.10
2023-02-09T10:10:05.823Z,6.17
2023-02-09T10:12:38.336Z,7.23
2023-02-09T10:15:28.203Z,7.73
2023-02-09T10:17:57.812Z,7.10
2023-02-09T10:20:48.602Z,7.17
2023-02-09T10:23:19.761Z,6.20
2023-02-09T10:25:55.562Z,6.10
2023-02-09T10:28:25.580Z,6.70
2023-02-09T10:30:55.852Z,7.10
2023-02-09T10:33:24.275Z,6.63
2023-02-09T10:35:54.966Z,6.83
2023-02-09T10:38:25.403Z,6.77
2023-02-09T10:40:54.400Z,6.50
2023-02-09T10:43:25.390Z,7.57
2023-02-09T10:45:56.576Z,7.73
2023-02-09T10:48:26.140Z,7.57
2023-02-09T10:50:59.068Z,8.27
2023-02-09T10:53:30.179Z,9.13
2023-02-09T10:56:04.319Z,7.33
2023-02-09T10:58:33.537Z,8.23
2023-02-09T11:01:13.697Z,9.50
2023-02-09T11:03:59.274Z,9.03
2023-02-09T11:06:29.218Z,9.73
2023-02-09T11:09:01.948Z,8.73
2023-02-09T11:11:32.180Z,8.43
2023-02-09T11:14:00.935Z,8.77
2023-02-09T11:16:48.555Z,8.60
2023-02-09T11:19:30.097Z,9.27
2023-02-09T11:22:07.535Z,9.20
2023-02-09T11:24:49.020Z,7.97
2023-02-09T11:27:29.497Z,8.37
2023-02-09T11:30:09.620Z,7.83
2023-02-09T11:32:43.786Z,10.67
2023-02-09T11:35:13.451Z,7.90
2023-02-09T11:37:50.863Z,8.10
2023-02-09T11:40:26.223Z,9.97
2023-02-09T11:43:06.338Z,9.27
2023-02-09T11:45:40.409Z,9.33
2023-02-09T11:48:12.804Z,10.47
2023-02-09T11:50:49.764Z,8.80
2023-02-09T11:53:26.183Z,8.50
2023-02-09T11:55:57.354Z,8.83
2023-02-09T11:58:35.740Z,8.03
2023-02-09T12:01:15.767Z,9.90
2023-02-09T12:03:58.931Z,12.13
2023-02-09T12:06:29.331Z,9.33
2023-02-09T12:09:10.120Z,10.33
2023-02-09T12:11:46.921Z,10.67
2023-02-09T12:14:24.945Z,10.50
2023-02-09T12:16:59.798Z,9.50
2023-02-09T12:19:35.255Z,9.03
2023-02-09T12:22:40.501Z,9.63
2023-02-09T12:25:25.376Z,11.50
2023-02-09T12:28:12.718Z,8.77
2023-02-09T12:30:59.896Z,10.03
2023-02-09T12:33:34.918Z,8.80
2023-02-09T12:36:05.803Z,9.77
2023-02-09T12:39:05.468Z,10.33
2023-02-09T12:42:06.713Z,12.10
2023-02-09T12:44:54.852Z,10.47
2023-02-09T12:47:43.612Z,9.07
2023-02-09T12:50:23.570Z,10.80
2023-02-09T12:53:31.409Z,10.30
2023-02-09T12:56:00.592Z,12.07
2023-02-09T12:58:39.983Z,11.87
2023-02-09T13:01:09.188Z,11.43
2023-02-09T13:03:43.454Z,11.13
2023-02-09T13:06:29.515Z,13.50
2023-02-09T13:09:00.901Z,10.33
2023-02-09T13:11:41.444Z,9.83
2023-02-09T13:14:13.504Z,10.93
2023-02-09T13:17:24.551Z,10.97
2023-02-09T13:20:11.417Z,11.40
2023-02-09T13:22:54.633Z,11.10
2023-02-09T13:25:30.194Z,11.47
2023-02-09T13:28:10.295Z,10.77
2023-02-09T13:30:38.560Z,12.13
2023-02-09T13:33:22.841Z,12.97
2023-02-09T13:36:08.927Z,12.83
2023-02-09T13:38:41.536Z,12.00
2023-02-09T13:41:24.321Z,11.47
2023-02-09T13:43:51.957Z,11.07
2023-02-09T13:46:26.927Z,10.23
2023-02-09T13:49:10.159Z,11.00
2023-02-09T13:51:38.459Z,9.97
2023-02-09T13:54:06.172Z,11.30
2023-02-09T13:56:35.783Z,10.70
2023-02-09T13:59:03.632Z,10.53
2023-02-09T14:01:34.499Z,11.67
2023-02-09T14:04:08.477Z,11.00
2023-02-09T14:06:40.808Z,12.27
2023-02-09T14:09:13.798Z,11.90
2023-02-09T14:11:46.412Z,11.73
2023-02-09T14:14:20.605Z,10.60
2023-02-09T14:16:53.913Z,11.27
2023-02-09T14:19:31.572Z,11.10
2023-02-09T14:21:59.661Z,10.17
2023-02-09T14:24:28.059Z,11.40
2023-02-09T14:27:03.956Z,9.67
2023-02-09T14:29:33.796Z,10.40
2023-02-09T14:32:05.174Z,11.57
2023-02-09T14:34:36.772Z,11.03
2023-02-09T14:37:26.321Z,9.53
2023-02-09T14:40:00.774Z,10.30
2023-02-09T14:42:28.992Z,11.40
2023-02-09T14:44:58.898Z,11.77
2023-02-09T14:47:40.228Z,10.80
2023-02-09T14:50:11.193Z,10.23
2023-02-09T14:52:39.874Z,11.33
2023-02-09T14:55:17.182Z,12.17
2023-02-09T14:57:44.821Z,11.20
2023-02-09T15:00:19.226Z,11.00
2023-02-09T15:02:47.257Z,11.17
2023-02-09T15:05:14.963Z,10.03
2023-02-09T15:07:45.632Z,11.53
2023-02-09T15:10:25.895Z,11.40
2023-02-09T15:12:54.679Z,13.30
2023-02-09T15:15:24.515Z,10.20
2023-02-09T15:17:54.171Z,11.43
2023-02-09T15:20:24.782Z,10.40
2023-02-09T15:22:52.475Z,10.83
2023-02-09T15:25:22.648Z,9.40
2023-02-09T15:27:53.952Z,11.50
2023-02-09T15:30:23.580Z,11.53
2023-02-09T15:32:52.343Z,11.93
2023-02-09T15:35:22.957Z,10.47
2023-02-09T15:37:54.321Z,9.77
2023-02-09T15:40:45.497Z,11.83
2023-02-09T15:43:33.584Z,11.13
2023-02-09T15:46:19.069Z,10.77
2023-02-09T15:48:46.692Z,11.20
2023-02-09T15:51:15.575Z,10.93
2023-02-09T15:53:43.832Z,11.03
2023-02-09T15:56:14.753Z,12.30
2023-02-09T15:58:44.795Z,11.37
2023-02-09T16:01:15.244Z,10.83
2023-02-09T16:03:42.932Z,12.03
2023-02-09T16:06:16.445Z,11.57
2023-02-09T16:08:45.281Z,11.70
2023-02-09T16:11:19.770Z,10.90
2023-02-09T16:13:47.426Z,12.67
2023-02-09T16:16:17.881Z,9.97
2023-02-09T16:18:46.387Z,12.17
2023-02-09T16:21:21.181Z,11.53
2023-02-09T16:23:48.974Z,11.67
2023-02-09T16:26:19.270Z,10.67
2023-02-09T16:28:47.219Z,11.43
2023-02-09T16:31:15.146Z,11.40
2023-02-09T16:33:43.599Z,13.40
2023-02-09T16:36:14.779Z,16.13
2023-02-09T16:38:43.309Z,16.13
2023-02-09T16:41:34.617Z,16.33
2023-02-09T16:44:15.140Z,13.30
2023-02-09T16:46:42.946Z,13.90
2023-02-09T16:49:30.812Z,16.67
2023-02-09T16:52:01.870Z,16.30
2023-02-09T16:54:33.347Z,19.43
2023-02-09T16:57:01.286Z,18.07
2023-02-09T16:59:30.258Z,18.43
2023-02-09T17:01:59.872Z,17.67
2023-02-09T17:04:27.599Z,16.27
2023-02-09T17:06:55.825Z,17.20
2023-02-09T17:09:23.413Z,16.73
2023-02-09T17:11:51.182Z,17.13
2023-02-09T17:14:19.112Z,16.00
2023-02-09T17:16:49.656Z,17.27
2023-02-09T17:19:19.461Z,18.00
2023-02-09T17:21:47.119Z,16.20
2023-02-09T17:24:17.201Z,15.83
2023-02-09T17:26:45.604Z,19.10
2023-02-09T17:29:14.551Z,19.17
2023-02-09T17:31:52.730Z,19.57
2023-02-09T17:34:27.388Z,16.20
2023-02-09T17:36:55.082Z,20.40
2023-02-09T17:39:23.386Z,19.03
2023-02-09T17:41:51.168Z,17.67
2023-02-09T17:44:35.255Z,20.33
2023-02-09T17:47:14.080Z,20.37
2023-02-09T17:49:43.144Z,29.07
2023-02-09T17:52:16.815Z,22.13
2023-02-09T17:54:45.398Z,21.40
2023-02-09T17:57:14.128Z,18.33
2023-02-09T17:59:42.067Z,19.23
2023-02-09T18:02:16.321Z,18.80
2023-02-09T18:04:45.686Z,18.07
2023-02-09T18:07:14.448Z,20.80
2023-02-09T18:09:42.568Z,19.20
2023-02-09T18:12:19.380Z,19.07
2023-02-09T18:14:47.386Z,20.73
2023-02-09T18:17:14.982Z,17.10
2023-02-09T18:19:42.884Z,15.00
2023-02-09T18:22:16.878Z,16.93
2023-02-09T18:24:45.699Z,16.97
2023-02-09T18:27:17.272Z,17.47
2023-02-09T18:29:45.479Z,17.67
2023-02-09T18:32:16.052Z,17.20
2023-02-09T18:34:44.079Z,18.37
2023-02-09T18:37:14.739Z,16.07
2023-02-09T18:39:46.690Z,13.27
2023-02-09T18:42:15.927Z,17.23
2023-02-09T18:44:43.978Z,17.00
2023-02-09T18:47:12.406Z,16.33
2023-02-09T18:49:40.337Z,16.23
2023-02-09T18:52:08.483Z,18.83
2023-02-09T18:54:38.204Z,20.07
2023-02-09T18:57:05.839Z,20.37
2023-02-09T18:59:33.624Z,60.07
2023-02-09T19:02:01.301Z,72.40
2023-02-09T19:04:29.348Z,23.37
2023-02-09T19:06:56.937Z,22.73
2023-02-09T19:09:25.179Z,23.80
2023-02-09T19:11:54.105Z,20.27
2023-02-09T19:14:40.223Z,17.00
2023-02-09T19:17:10.232Z,17.83
2023-02-09T19:19:38.877Z,15.13
2023-02-09T19:22:06.774Z,17.13
2023-02-09T19:24:34.390Z,16.23
2023-02-09T19:27:03.459Z,17.37
2023-02-09T19:29:31.324Z,16.20
2023-02-09T19:31:58.888Z,17.37
2023-02-09T19:34:31.301Z,15.27
2023-02-09T19:36:59.046Z,14.43
2023-02-09T19:39:27.057Z,15.27
2023-02-09T19:41:54.721Z,15.33
2023-02-09T19:44:24.004Z,15.57
2023-02-09T19:46:51.669Z,16.03
2023-02-09T19:49:19.432Z,20.93
2023-02-09T19:51:47.148Z,19.33
2023-02-09T19:54:14.740Z,25.53
2023-02-09T19:56:45.115Z,25.53
2023-02-09T19:59:13.743Z,26.77
2023-02-09T20:01:43.437Z,24.00
2023-02-09T20:04:11.208Z,22.17
2023-02-09T20:06:39.222Z,22.40
2023-02-09T20:09:06.817Z,20.90
2023-02-09T20:11:35.203Z,20.60
2023-02-09T20:14:03.103Z,19.03
2023-02-09T20:16:30.990Z,17.13
2023-02-09T20:19:00.036Z,17.03
2023-02-09T20:21:27.921Z,16.63
2023-02-09T20:23:56.267Z,17.37
2023-02-09T20:26:28.957Z,16.47
2023-02-09T20:28:57.772Z,14.90
2023-02-09T20:31:27.989Z,13.87
2023-02-09T20:33:56.171Z,15.37
2023-02-09T20:36:25.916Z,14.37
2023-02-09T20:38:53.961Z,16.10
2023-02-09T20:41:21.910Z,13.77
2023-02-09T20:44:07.014Z,15.53
2023-02-09T20:46:55.684Z,13.93
2023-02-09T20:49:25.735Z,14.87
2023-02-09T20:51:55.153Z,14.77
2023-02-09T20:54:22.736Z,14.73
2023-02-09T20:56:50.456Z,14.17
2023-02-09T20:59:18.237Z,16.23
2023-02-09T21:01:46.258Z,18.70
2023-02-09T21:04:13.917Z,14.10
2023-02-09T21:06:41.503Z,20.77
2023-02-09T21:09:14.073Z,19.40
2023-02-09T21:11:42.320Z,18.37
2023-02-09T21:14:21.721Z,19.53
2023-02-09T21:16:57.874Z,19.73
2023-02-09T21:19:25.949Z,17.17
2023-02-09T21:21:53.728Z,17.50
2023-02-09T21:24:22.953Z,19.40
2023-02-09T21:26:50.527Z,15.73
2023-02-09T21:29:18.136Z,17.93
2023-02-09T21:31:46.246Z,20.43
2023-02-09T21:34:15.100Z,20.43
2023-02-09T21:36:43.686Z,18.60
2023-02-09T21:39:11.403Z,27.50
2023-02-09T21:41:58.484Z,26.20
2023-02-09T21:44:26.281Z,29.17
2023-02-09T21:46:55.206Z,24.30
2023-02-09T21:49:23.164Z,23.33
2023-02-09T21:51:51.167Z,23.40
2023-02-09T21:54:19.453Z,24.47
2023-02-09T21:56:48.443Z,24.03
2023-02-09T21:59:16.060Z,24.57
2023-02-09T22:01:43.727Z,22.27
2023-02-09T22:04:11.372Z,22.20
2023-02-09T22:06:39.601Z,23.07
2023-02-09T22:09:07.188Z,21.77
2023-02-09T22:11:35.540Z,21.07
2023-02-09T22:14:04.536Z,19.00
2023-02-09T22:16:32.605Z,16.70
2023-02-09T22:19:00.673Z,19.13
2023-02-09T22:21:28.704Z,18.73
2023-02-09T22:23:56.360Z,18.57
2023-02-09T22:26:24.470Z,19.00
2023-02-09T22:28:52.117Z,17.47
2023-02-09T22:31:22.057Z,19.13
2023-02-09T22:33:54.155Z,17.43
2023-02-09T22:36:23.305Z,17.17
2023-02-09T22:38:51.343Z,16.70
2023-02-09T22:41:24.452Z,18.60
2023-02-09T22:43:54.106Z,16.33
2023-02-09T22:46:25.480Z,15.13
2023-02-09T22:48:54.253Z,14.87
2023-02-09T22:51:23.881Z,18.13
2023-02-09T22:53:51.868Z,17.73
2023-02-09T22:56:19.508Z,16.13
2023-02-09T22:58:47.476Z,17.13
2023-02-09T23:01:15.461Z,17.33
2023-02-09T23:03:44.869Z,16.60
2023-02-09T23:06:15.169Z,15.23
2023-02-09T23:08:43.115Z,16.20
2023-02-09T23:11:13.413Z,18.50
2023-02-09T23:13:42.218Z,17.20
2023-02-09T23:16:11.852Z,17.80
2023-02-09T23:18:40.554Z,18.33
2023-02-09T23:21:09.491Z,14.63
2023-02-09T23:23:37.486Z,18.07
2023-02-09T23:26:05.413Z,16.70
2023-02-09T23:28:33.190Z,16.50
2023-02-09T23:31:05.443Z,15.03
2023-02-09T23:33:33.758Z,16.27
2023-02-09T23:36:04.524Z,16.83
2023-02-09T23:38:33.877Z,16.00
2023-02-09T23:41:06.359Z,16.40
2023-02-09T23:43:34.542Z,14.07
2023-02-09T23:46:02.338Z,14.07
2023-02-09T23:48:30.466Z,14.77
2023-02-09T23:51:02.026Z,16.63
2023-02-09T23:53:30.593Z,15.43
2023-02-09T23:56:03.726Z,14.17
2023-02-09T23:58:32.268Z,14.30
